sensor_id;sensor_type;location;lat;lon;timestamp;temperature;humidity
70734;DHT22;58320;48.804;9.252;2023-06-19T00:01:20;23.60;48.00
70734;DHT22;58320;48.804;9.252;2023-06-19T00:03:46;23.70;47.50
70734;DHT22;58320;48.804;9.252;2023-06-19T00:06:11;23.70;47.50
70734;DHT22;58320;48.804;9.252;2023-06-19T00:08:40;23.60;47.40
70734;DHT22;58320;48.804;9.252;2023-06-19T00:11:08;23.60;47.40
70734;DHT22;58320;48.804;9.252;2023-06-19T00:13:34;23.60;47.40
70734;DHT22;58320;48.804;9.252;2023-06-19T00:16:00;23.60;47.40
70734;DHT22;58320;48.804;9.252;2023-06-19T00:18:27;23.60;47.30
70734;DHT22;58320;48.804;9.252;2023-06-19T00:20:53;23.60;47.20
70734;DHT22;58320;48.804;9.252;2023-06-19T00:23:23;23.70;47.20
70734;DHT22;58320;48.804;9.252;2023-06-19T00:25:48;23.70;47.10
70734;DHT22;58320;48.804;9.252;2023-06-19T00:28:14;23.80;47.00
70734;DHT22;58320;48.804;9.252;2023-06-19T00:30:43;23.90;47.20
70734;DHT22;58320;48.804;9.252;2023-06-19T00:33:13;23.90;46.80
70734;DHT22;58320;48.804;9.252;2023-06-19T00:35:38;24.00;46.60
70734;DHT22;58320;48.804;9.252;2023-06-19T00:38:07;24.00;46.60
70734;DHT22;58320;48.804;9.252;2023-06-19T00:40:33;24.00;46.50
70734;DHT22;58320;48.804;9.252;2023-06-19T00:42:59;24.10;46.50
70734;DHT22;58320;48.804;9.252;2023-06-19T00:45:26;24.10;46.70
70734;DHT22;58320;48.804;9.252;2023-06-19T00:47:54;24.00;46.80
70734;DHT22;58320;48.804;9.252;2023-06-19T00:50:24;24.00;47.10
70734;DHT22;58320;48.804;9.252;2023-06-19T00:52:50;24.00;47.20
70734;DHT22;58320;48.804;9.252;2023-06-19T00:55:17;23.90;47.30
70734;DHT22;58320;48.804;9.252;2023-06-19T00:57:43;23.90;47.60
70734;DHT22;58320;48.804;9.252;2023-06-19T01:00:10;23.90;47.90
70734;DHT22;58320;48.804;9.252;2023-06-19T01:02:38;23.90;48.00
70734;DHT22;58320;48.804;9.252;2023-06-19T01:05:04;23.90;48.00
70734;DHT22;58320;48.804;9.252;2023-06-19T01:10:30;23.80;48.40
70734;DHT22;58320;48.804;9.252;2023-06-19T01:13:15;23.80;48.40
70734;DHT22;58320;48.804;9.252;2023-06-19T01:15:46;23.80;48.40
70734;DHT22;58320;48.804;9.252;2023-06-19T01:18:12;23.80;48.60
70734;DHT22;58320;48.804;9.252;2023-06-19T01:20:38;23.70;48.60
70734;DHT22;58320;48.804;9.252;2023-06-19T01:23:07;23.70;48.90
70734;DHT22;58320;48.804;9.252;2023-06-19T01:25:34;23.70;47.40
70734;DHT22;58320;48.804;9.252;2023-06-19T01:28:01;23.90;46.80
70734;DHT22;58320;48.804;9.252;2023-06-19T01:30:29;24.00;46.30
70734;DHT22;58320;48.804;9.252;2023-06-19T01:32:58;24.10;46.30
70734;DHT22;58320;48.804;9.252;2023-06-19T01:35:28;24.10;46.50
70734;DHT22;58320;48.804;9.252;2023-06-19T01:37:55;24.00;46.90
70734;DHT22;58320;48.804;9.252;2023-06-19T01:40:23;23.90;47.10
70734;DHT22;58320;48.804;9.252;2023-06-19T01:42:53;23.80;47.40
70734;DHT22;58320;48.804;9.252;2023-06-19T01:45:20;23.70;47.70
70734;DHT22;58320;48.804;9.252;2023-06-19T01:47:46;23.70;47.70
70734;DHT22;58320;48.804;9.252;2023-06-19T01:50:12;23.60;47.90
70734;DHT22;58320;48.804;9.252;2023-06-19T01:52:41;23.60;48.10
70734;DHT22;58320;48.804;9.252;2023-06-19T01:55:07;23.50;48.60
70734;DHT22;58320;48.804;9.252;2023-06-19T01:57:35;23.50;48.70
70734;DHT22;58320;48.804;9.252;2023-06-19T02:00:02;23.40;48.80
70734;DHT22;58320;48.804;9.252;2023-06-19T02:02:30;23.40;49.30
70734;DHT22;58320;48.804;9.252;2023-06-19T02:04:56;23.40;49.50
70734;DHT22;58320;48.804;9.252;2023-06-19T02:07:23;23.30;49.80
70734;DHT22;58320;48.804;9.252;2023-06-19T02:09:49;23.30;49.90
70734;DHT22;58320;48.804;9.252;2023-06-19T02:12:14;23.30;50.20
70734;DHT22;58320;48.804;9.252;2023-06-19T02:14:40;23.20;50.50
70734;DHT22;58320;48.804;9.252;2023-06-19T02:17:06;23.20;50.60
70734;DHT22;58320;48.804;9.252;2023-06-19T02:19:31;23.10;50.70
70734;DHT22;58320;48.804;9.252;2023-06-19T02:21:57;23.10;51.20
70734;DHT22;58320;48.804;9.252;2023-06-19T02:24:23;23.00;51.40
70734;DHT22;58320;48.804;9.252;2023-06-19T02:26:49;23.00;51.80
70734;DHT22;58320;48.804;9.252;2023-06-19T02:29:15;23.00;52.20
70734;DHT22;58320;48.804;9.252;2023-06-19T02:31:41;22.90;52.40
70734;DHT22;58320;48.804;9.252;2023-06-19T02:34:08;22.90;52.50
70734;DHT22;58320;48.804;9.252;2023-06-19T02:36:35;22.90;52.50
70734;DHT22;58320;48.804;9.252;2023-06-19T02:39:01;22.80;52.90
70734;DHT22;58320;48.804;9.252;2023-06-19T02:41:29;22.80;53.10
70734;DHT22;58320;48.804;9.252;2023-06-19T02:43:54;22.70;53.00
70734;DHT22;58320;48.804;9.252;2023-06-19T02:46:20;22.70;53.00
70734;DHT22;58320;48.804;9.252;2023-06-19T02:48:46;22.70;53.10
70734;DHT22;58320;48.804;9.252;2023-06-19T02:51:12;22.60;53.40
70734;DHT22;58320;48.804;9.252;2023-06-19T02:53:37;22.60;53.70
70734;DHT22;58320;48.804;9.252;2023-06-19T02:56:04;22.50;54.10
70734;DHT22;58320;48.804;9.252;2023-06-19T02:58:30;22.50;54.30
70734;DHT22;58320;48.804;9.252;2023-06-19T03:00:56;22.50;54.50
70734;DHT22;58320;48.804;9.252;2023-06-19T03:03:22;22.40;54.60
70734;DHT22;58320;48.804;9.252;2023-06-19T03:05:48;22.40;54.80
70734;DHT22;58320;48.804;9.252;2023-06-19T03:08:14;22.40;55.00
70734;DHT22;58320;48.804;9.252;2023-06-19T03:10:39;22.40;55.10
70734;DHT22;58320;48.804;9.252;2023-06-19T03:13:05;22.40;55.30
70734;DHT22;58320;48.804;9.252;2023-06-19T03:15:31;22.50;55.20
70734;DHT22;58320;48.804;9.252;2023-06-19T03:17:56;22.40;55.00
70734;DHT22;58320;48.804;9.252;2023-06-19T03:20:22;22.50;54.60
70734;DHT22;58320;48.804;9.252;2023-06-19T03:22:49;22.50;54.60
70734;DHT22;58320;48.804;9.252;2023-06-19T03:25:15;22.50;54.70
70734;DHT22;58320;48.804;9.252;2023-06-19T03:27:40;22.40;54.90
70734;DHT22;58320;48.804;9.252;2023-06-19T03:30:07;22.40;55.10
70734;DHT22;58320;48.804;9.252;2023-06-19T03:32:33;22.40;55.20
70734;DHT22;58320;48.804;9.252;2023-06-19T03:34:59;22.30;56.50
70734;DHT22;58320;48.804;9.252;2023-06-19T03:37:26;22.20;58.20
70734;DHT22;58320;48.804;9.252;2023-06-19T03:39:52;22.10;58.80
70734;DHT22;58320;48.804;9.252;2023-06-19T03:42:18;22.00;58.40
70734;DHT22;58320;48.804;9.252;2023-06-19T03:44:44;22.00;58.40
70734;DHT22;58320;48.804;9.252;2023-06-19T03:47:09;21.90;58.30
70734;DHT22;58320;48.804;9.252;2023-06-19T03:49:35;21.90;58.40
70734;DHT22;58320;48.804;9.252;2023-06-19T03:52:01;21.90;58.20
70734;DHT22;58320;48.804;9.252;2023-06-19T03:54:27;21.90;58.30
70734;DHT22;58320;48.804;9.252;2023-06-19T03:56:53;21.90;57.80
70734;DHT22;58320;48.804;9.252;2023-06-19T03:59:18;21.90;57.70
70734;DHT22;58320;48.804;9.252;2023-06-19T04:01:44;21.90;57.50
70734;DHT22;58320;48.804;9.252;2023-06-19T04:04:10;21.90;57.50
70734;DHT22;58320;48.804;9.252;2023-06-19T04:06:36;22.00;57.70
70734;DHT22;58320;48.804;9.252;2023-06-19T04:09:01;21.90;57.50
70734;DHT22;58320;48.804;9.252;2023-06-19T04:11:28;22.00;57.80
70734;DHT22;58320;48.804;9.252;2023-06-19T04:13:53;22.00;57.60
70734;DHT22;58320;48.804;9.252;2023-06-19T04:16:19;22.00;57.30
70734;DHT22;58320;48.804;9.252;2023-06-19T04:18:45;22.00;57.40
70734;DHT22;58320;48.804;9.252;2023-06-19T04:21:11;22.00;57.10
70734;DHT22;58320;48.804;9.252;2023-06-19T04:23:37;22.10;57.30
70734;DHT22;58320;48.804;9.252;2023-06-19T04:26:03;22.10;57.40
70734;DHT22;58320;48.804;9.252;2023-06-19T04:28:29;22.10;58.10
70734;DHT22;58320;48.804;9.252;2023-06-19T04:30:55;22.10;58.70
70734;DHT22;58320;48.804;9.252;2023-06-19T04:33:29;22.10;59.50
70734;DHT22;58320;48.804;9.252;2023-06-19T04:35:56;22.10;58.80
70734;DHT22;58320;48.804;9.252;2023-06-19T04:38:22;22.00;58.60
70734;DHT22;58320;48.804;9.252;2023-06-19T04:40:51;22.00;58.20
70734;DHT22;58320;48.804;9.252;2023-06-19T04:43:17;22.00;58.50
70734;DHT22;58320;48.804;9.252;2023-06-19T04:45:43;21.90;58.50
70734;DHT22;58320;48.804;9.252;2023-06-19T04:48:08;22.00;58.60
70734;DHT22;58320;48.804;9.252;2023-06-19T04:50:34;22.00;58.40
70734;DHT22;58320;48.804;9.252;2023-06-19T04:53:00;22.00;58.50
70734;DHT22;58320;48.804;9.252;2023-06-19T04:55:26;22.10;58.40
70734;DHT22;58320;48.804;9.252;2023-06-19T04:57:52;22.20;58.30
70734;DHT22;58320;48.804;9.252;2023-06-19T05:00:18;22.30;57.80
70734;DHT22;58320;48.804;9.252;2023-06-19T05:02:48;22.40;57.60
70734;DHT22;58320;48.804;9.252;2023-06-19T05:05:15;22.50;57.40
70734;DHT22;58320;48.804;9.252;2023-06-19T05:07:44;22.50;57.60
70734;DHT22;58320;48.804;9.252;2023-06-19T05:10:13;22.60;57.50
70734;DHT22;58320;48.804;9.252;2023-06-19T05:12:38;22.70;57.30
70734;DHT22;58320;48.804;9.252;2023-06-19T05:15:04;22.80;57.50
70734;DHT22;58320;48.804;9.252;2023-06-19T05:17:30;22.90;57.10
70734;DHT22;58320;48.804;9.252;2023-06-19T05:19:56;23.10;56.70
70734;DHT22;58320;48.804;9.252;2023-06-19T05:22:22;23.10;56.90
70734;DHT22;58320;48.804;9.252;2023-06-19T05:24:49;23.20;56.40
70734;DHT22;58320;48.804;9.252;2023-06-19T05:27:15;23.30;56.20
70734;DHT22;58320;48.804;9.252;2023-06-19T05:29:40;23.40;56.30
70734;DHT22;58320;48.804;9.252;2023-06-19T05:32:06;23.30;56.00
70734;DHT22;58320;48.804;9.252;2023-06-19T05:34:34;23.20;56.60
70734;DHT22;58320;48.804;9.252;2023-06-19T05:37:00;23.10;56.80
70734;DHT22;58320;48.804;9.252;2023-06-19T05:39:29;23.00;57.20
70734;DHT22;58320;48.804;9.252;2023-06-19T05:41:55;23.00;57.30
70734;DHT22;58320;48.804;9.252;2023-06-19T05:44:20;22.90;57.90
70734;DHT22;58320;48.804;9.252;2023-06-19T05:46:46;22.90;57.90
70734;DHT22;58320;48.804;9.252;2023-06-19T05:49:12;23.00;57.60
70734;DHT22;58320;48.804;9.252;2023-06-19T05:51:38;23.10;58.00
70734;DHT22;58320;48.804;9.252;2023-06-19T05:54:04;23.20;57.90
70734;DHT22;58320;48.804;9.252;2023-06-19T05:56:31;23.30;57.20
70734;DHT22;58320;48.804;9.252;2023-06-19T05:58:58;23.30;57.10
70734;DHT22;58320;48.804;9.252;2023-06-19T06:01:25;23.40;57.20
70734;DHT22;58320;48.804;9.252;2023-06-19T06:03:54;23.50;57.00
70734;DHT22;58320;48.804;9.252;2023-06-19T06:06:20;23.70;56.80
70734;DHT22;58320;48.804;9.252;2023-06-19T06:08:48;23.80;56.70
70734;DHT22;58320;48.804;9.252;2023-06-19T06:11:14;23.90;56.20
70734;DHT22;58320;48.804;9.252;2023-06-19T06:13:40;24.00;55.90
70734;DHT22;58320;48.804;9.252;2023-06-19T06:16:05;24.10;55.60
70734;DHT22;58320;48.804;9.252;2023-06-19T06:18:31;24.10;55.50
70734;DHT22;58320;48.804;9.252;2023-06-19T06:20:57;24.00;55.80
70734;DHT22;58320;48.804;9.252;2023-06-19T06:23:25;23.80;56.70
70734;DHT22;58320;48.804;9.252;2023-06-19T06:25:51;23.60;57.00
70734;DHT22;58320;48.804;9.252;2023-06-19T06:28:16;23.50;57.10
70734;DHT22;58320;48.804;9.252;2023-06-19T06:30:43;23.40;57.60
70734;DHT22;58320;48.804;9.252;2023-06-19T06:33:09;23.30;57.90
70734;DHT22;58320;48.804;9.252;2023-06-19T06:35:35;23.30;58.10
70734;DHT22;58320;48.804;9.252;2023-06-19T06:38:02;23.50;58.20
70734;DHT22;58320;48.804;9.252;2023-06-19T06:40:28;23.70;57.30
70734;DHT22;58320;48.804;9.252;2023-06-19T06:42:54;23.80;56.90
70734;DHT22;58320;48.804;9.252;2023-06-19T06:45:20;23.90;57.20
70734;DHT22;58320;48.804;9.252;2023-06-19T06:47:46;24.10;56.70
70734;DHT22;58320;48.804;9.252;2023-06-19T06:50:12;24.40;56.20
70734;DHT22;58320;48.804;9.252;2023-06-19T06:52:38;24.90;54.00
70734;DHT22;58320;48.804;9.252;2023-06-19T06:55:04;25.10;53.20
70734;DHT22;58320;48.804;9.252;2023-06-19T06:57:30;25.30;52.80
70734;DHT22;58320;48.804;9.252;2023-06-19T06:59:56;25.80;52.60
70734;DHT22;58320;48.804;9.252;2023-06-19T07:02:22;26.00;50.50
70734;DHT22;58320;48.804;9.252;2023-06-19T07:04:48;26.20;51.20
70734;DHT22;58320;48.804;9.252;2023-06-19T07:07:13;26.30;50.70
70734;DHT22;58320;48.804;9.252;2023-06-19T07:09:39;26.30;51.00
70734;DHT22;58320;48.804;9.252;2023-06-19T07:12:05;26.30;50.10
70734;DHT22;58320;48.804;9.252;2023-06-19T07:14:32;26.30;49.30
70734;DHT22;58320;48.804;9.252;2023-06-19T07:16:58;26.20;48.80
70734;DHT22;58320;48.804;9.252;2023-06-19T07:19:24;25.80;50.20
70734;DHT22;58320;48.804;9.252;2023-06-19T07:21:50;25.70;50.70
70734;DHT22;58320;48.804;9.252;2023-06-19T07:24:16;25.60;50.80
70734;DHT22;58320;48.804;9.252;2023-06-19T07:26:42;25.50;50.80
70734;DHT22;58320;48.804;9.252;2023-06-19T07:29:08;25.60;51.10
70734;DHT22;58320;48.804;9.252;2023-06-19T07:31:33;25.60;51.10
70734;DHT22;58320;48.804;9.252;2023-06-19T07:33:59;25.80;49.90
70734;DHT22;58320;48.804;9.252;2023-06-19T07:36:25;25.80;50.10
70734;DHT22;58320;48.804;9.252;2023-06-19T07:38:52;26.10;48.90
70734;DHT22;58320;48.804;9.252;2023-06-19T07:41:18;26.30;48.90
70734;DHT22;58320;48.804;9.252;2023-06-19T07:43:44;26.30;48.90
70734;DHT22;58320;48.804;9.252;2023-06-19T07:46:10;26.40;48.20
70734;DHT22;58320;48.804;9.252;2023-06-19T07:48:36;26.10;48.50
70734;DHT22;58320;48.804;9.252;2023-06-19T07:51:02;26.10;48.40
70734;DHT22;58320;48.804;9.252;2023-06-19T07:53:27;26.30;48.20
70734;DHT22;58320;48.804;9.252;2023-06-19T07:55:53;26.70;47.40
70734;DHT22;58320;48.804;9.252;2023-06-19T07:58:19;27.00;46.50
70734;DHT22;58320;48.804;9.252;2023-06-19T08:00:45;26.90;46.80
70734;DHT22;58320;48.804;9.252;2023-06-19T08:03:10;26.80;47.10
70734;DHT22;58320;48.804;9.252;2023-06-19T08:05:36;26.80;46.80
70734;DHT22;58320;48.804;9.252;2023-06-19T08:08:02;26.80;47.30
70734;DHT22;58320;48.804;9.252;2023-06-19T08:10:28;26.50;48.00
70734;DHT22;58320;48.804;9.252;2023-06-19T08:12:54;26.40;47.50
70734;DHT22;58320;48.804;9.252;2023-06-19T08:15:19;26.20;47.60
70734;DHT22;58320;48.804;9.252;2023-06-19T08:17:45;26.10;47.70
70734;DHT22;58320;48.804;9.252;2023-06-19T08:20:12;26.20;47.90
70734;DHT22;58320;48.804;9.252;2023-06-19T08:22:37;26.40;47.90
70734;DHT22;58320;48.804;9.252;2023-06-19T08:25:04;26.60;47.90
70734;DHT22;58320;48.804;9.252;2023-06-19T08:27:30;26.70;47.30
70734;DHT22;58320;48.804;9.252;2023-06-19T08:29:56;26.70;47.70
70734;DHT22;58320;48.804;9.252;2023-06-19T08:32:22;26.40;47.80
70734;DHT22;58320;48.804;9.252;2023-06-19T08:34:47;26.10;49.00
70734;DHT22;58320;48.804;9.252;2023-06-19T08:37:13;26.10;48.80
70734;DHT22;58320;48.804;9.252;2023-06-19T08:39:39;26.20;48.80
70734;DHT22;58320;48.804;9.252;2023-06-19T08:42:08;26.40;48.40
70734;DHT22;58320;48.804;9.252;2023-06-19T08:44:35;26.40;47.80
70734;DHT22;58320;48.804;9.252;2023-06-19T08:47:02;26.50;48.10
70734;DHT22;58320;48.804;9.252;2023-06-19T08:49:35;26.70;48.10
70734;DHT22;58320;48.804;9.252;2023-06-19T08:52:04;26.70;48.00
70734;DHT22;58320;48.804;9.252;2023-06-19T08:54:31;26.70;47.40
70734;DHT22;58320;48.804;9.252;2023-06-19T08:57:01;26.40;48.10
70734;DHT22;58320;48.804;9.252;2023-06-19T08:59:27;26.40;48.50
70734;DHT22;58320;48.804;9.252;2023-06-19T09:01:57;26.50;48.00
70734;DHT22;58320;48.804;9.252;2023-06-19T09:04:27;26.80;47.40
70734;DHT22;58320;48.804;9.252;2023-06-19T09:06:58;26.80;47.10
70734;DHT22;58320;48.804;9.252;2023-06-19T09:09:26;26.80;47.40
70734;DHT22;58320;48.804;9.252;2023-06-19T09:12:07;26.80;47.20
70734;DHT22;58320;48.804;9.252;2023-06-19T09:14:43;26.80;47.10
70734;DHT22;58320;48.804;9.252;2023-06-19T09:17:12;26.90;47.30
70734;DHT22;58320;48.804;9.252;2023-06-19T09:19:51;27.10;47.10
70734;DHT22;58320;48.804;9.252;2023-06-19T09:22:20;27.30;46.60
70734;DHT22;58320;48.804;9.252;2023-06-19T09:24:47;27.50;46.00
70734;DHT22;58320;48.804;9.252;2023-06-19T09:27:15;27.50;46.20
70734;DHT22;58320;48.804;9.252;2023-06-19T09:29:48;27.60;46.90
70734;DHT22;58320;48.804;9.252;2023-06-19T09:32:27;28.00;45.80
70734;DHT22;58320;48.804;9.252;2023-06-19T09:34:57;28.20;45.40
70734;DHT22;58320;48.804;9.252;2023-06-19T09:37:28;28.30;45.00
70734;DHT22;58320;48.804;9.252;2023-06-19T09:39:57;28.40;44.60
70734;DHT22;58320;48.804;9.252;2023-06-19T09:42:35;28.30;44.90
70734;DHT22;58320;48.804;9.252;2023-06-19T09:45:08;28.40;44.70
70734;DHT22;58320;48.804;9.252;2023-06-19T09:47:38;28.70;44.10
70734;DHT22;58320;48.804;9.252;2023-06-19T09:50:06;28.90;43.50
70734;DHT22;58320;48.804;9.252;2023-06-19T09:52:32;29.00;43.80
70734;DHT22;58320;48.804;9.252;2023-06-19T09:55:04;29.20;43.80
70734;DHT22;58320;48.804;9.252;2023-06-19T09:57:32;29.30;43.40
70734;DHT22;58320;48.804;9.252;2023-06-19T09:59:59;29.20;44.10
70734;DHT22;58320;48.804;9.252;2023-06-19T10:02:35;29.30;44.10
70734;DHT22;58320;48.804;9.252;2023-06-19T10:05:01;29.30;43.40
70734;DHT22;58320;48.804;9.252;2023-06-19T10:07:34;29.40;43.90
70734;DHT22;58320;48.804;9.252;2023-06-19T10:10:02;29.60;43.80
70734;DHT22;58320;48.804;9.252;2023-06-19T10:12:47;29.90;43.00
70734;DHT22;58320;48.804;9.252;2023-06-19T10:17:49;30.00;42.30
70734;DHT22;58320;48.804;9.252;2023-06-19T10:20:36;30.20;42.40
70734;DHT22;58320;48.804;9.252;2023-06-19T10:23:05;30.50;42.00
70734;DHT22;58320;48.804;9.252;2023-06-19T10:25:37;30.60;41.20
70734;DHT22;58320;48.804;9.252;2023-06-19T10:28:15;30.50;41.10
70734;DHT22;58320;48.804;9.252;2023-06-19T10:30:58;30.00;42.10
70734;DHT22;58320;48.804;9.252;2023-06-19T10:33:32;29.90;42.60
70734;DHT22;58320;48.804;9.252;2023-06-19T10:36:21;30.10;42.30
70734;DHT22;58320;48.804;9.252;2023-06-19T10:38:48;30.50;41.50
70734;DHT22;58320;48.804;9.252;2023-06-19T10:41:25;30.70;41.80
70734;DHT22;58320;48.804;9.252;2023-06-19T10:44:00;31.00;41.10
70734;DHT22;58320;48.804;9.252;2023-06-19T10:46:34;31.10;41.70
70734;DHT22;58320;48.804;9.252;2023-06-19T10:49:04;31.40;40.50
70734;DHT22;58320;48.804;9.252;2023-06-19T10:51:34;31.50;40.20
70734;DHT22;58320;48.804;9.252;2023-06-19T10:54:00;31.40;40.90
70734;DHT22;58320;48.804;9.252;2023-06-19T10:56:26;31.20;40.90
70734;DHT22;58320;48.804;9.252;2023-06-19T10:59:04;31.00;41.40
70734;DHT22;58320;48.804;9.252;2023-06-19T11:01:39;30.80;41.70
70734;DHT22;58320;48.804;9.252;2023-06-19T11:04:08;30.80;41.70
70734;DHT22;58320;48.804;9.252;2023-06-19T11:06:35;31.00;41.60
70734;DHT22;58320;48.804;9.252;2023-06-19T11:09:06;31.20;41.50
70734;DHT22;58320;48.804;9.252;2023-06-19T11:14:10;31.90;40.50
70734;DHT22;58320;48.804;9.252;2023-06-19T11:16:39;32.10;39.90
70734;DHT22;58320;48.804;9.252;2023-06-19T11:19:17;31.90;39.60
70734;DHT22;58320;48.804;9.252;2023-06-19T11:21:49;31.70;40.00
70734;DHT22;58320;48.804;9.252;2023-06-19T11:24:16;31.30;40.50
70734;DHT22;58320;48.804;9.252;2023-06-19T11:26:48;30.90;41.00
70734;DHT22;58320;48.804;9.252;2023-06-19T11:29:20;30.80;41.10
70734;DHT22;58320;48.804;9.252;2023-06-19T11:31:47;31.10;41.80
70734;DHT22;58320;48.804;9.252;2023-06-19T11:34:14;31.70;41.30
70734;DHT22;58320;48.804;9.252;2023-06-19T11:36:42;32.40;40.00
70734;DHT22;58320;48.804;9.252;2023-06-19T11:39:11;33.50;38.50
70734;DHT22;58320;48.804;9.252;2023-06-19T11:41:39;34.30;37.20
70734;DHT22;58320;48.804;9.252;2023-06-19T11:44:06;34.40;37.00
70734;DHT22;58320;48.804;9.252;2023-06-19T11:46:33;34.50;36.70
70734;DHT22;58320;48.804;9.252;2023-06-19T11:49:12;34.40;37.30
70734;DHT22;58320;48.804;9.252;2023-06-19T11:51:40;34.30;36.50
70734;DHT22;58320;48.804;9.252;2023-06-19T11:54:07;34.10;36.80
70734;DHT22;58320;48.804;9.252;2023-06-19T11:56:38;33.60;37.00
70734;DHT22;58320;48.804;9.252;2023-06-19T11:59:04;33.40;37.30
70734;DHT22;58320;48.804;9.252;2023-06-19T12:01:35;33.80;37.00
70734;DHT22;58320;48.804;9.252;2023-06-19T12:04:02;34.10;36.20
70734;DHT22;58320;48.804;9.252;2023-06-19T12:06:28;34.60;36.20
70734;DHT22;58320;48.804;9.252;2023-06-19T12:08:54;35.30;35.50
70734;DHT22;58320;48.804;9.252;2023-06-19T12:11:20;36.10;33.90
70734;DHT22;58320;48.804;9.252;2023-06-19T12:13:46;36.50;33.90
70734;DHT22;58320;48.804;9.252;2023-06-19T12:16:13;36.60;33.60
70734;DHT22;58320;48.804;9.252;2023-06-19T12:18:39;36.40;33.40
70734;DHT22;58320;48.804;9.252;2023-06-19T12:21:06;35.50;34.60
70734;DHT22;58320;48.804;9.252;2023-06-19T12:23:32;35.50;34.90
70734;DHT22;58320;48.804;9.252;2023-06-19T12:25:58;35.50;35.10
70734;DHT22;58320;48.804;9.252;2023-06-19T12:28:24;35.40;34.90
70734;DHT22;58320;48.804;9.252;2023-06-19T12:30:51;35.30;35.00
70734;DHT22;58320;48.804;9.252;2023-06-19T12:33:19;35.40;34.70
70734;DHT22;58320;48.804;9.252;2023-06-19T12:35:46;35.30;34.70
70734;DHT22;58320;48.804;9.252;2023-06-19T12:38:12;35.30;35.20
70734;DHT22;58320;48.804;9.252;2023-06-19T12:40:38;35.60;34.90
70734;DHT22;58320;48.804;9.252;2023-06-19T12:43:05;36.10;33.80
70734;DHT22;58320;48.804;9.252;2023-06-19T12:45:31;36.30;34.10
70734;DHT22;58320;48.804;9.252;2023-06-19T12:47:57;36.20;33.60
70734;DHT22;58320;48.804;9.252;2023-06-19T12:50:23;35.70;34.20
70734;DHT22;58320;48.804;9.252;2023-06-19T12:52:49;35.40;35.00
70734;DHT22;58320;48.804;9.252;2023-06-19T12:55:15;36.20;33.70
70734;DHT22;58320;48.804;9.252;2023-06-19T12:57:41;37.00;32.50
70734;DHT22;58320;48.804;9.252;2023-06-19T13:00:11;37.10;32.50
70734;DHT22;58320;48.804;9.252;2023-06-19T13:02:38;36.30;33.10
70734;DHT22;58320;48.804;9.252;2023-06-19T13:05:06;35.60;34.30
70734;DHT22;58320;48.804;9.252;2023-06-19T13:07:32;35.80;34.10
70734;DHT22;58320;48.804;9.252;2023-06-19T13:09:58;36.60;33.50
70734;DHT22;58320;48.804;9.252;2023-06-19T13:12:24;37.70;32.50
70734;DHT22;58320;48.804;9.252;2023-06-19T13:14:51;38.30;31.30
70734;DHT22;58320;48.804;9.252;2023-06-19T13:17:17;37.90;31.90
70734;DHT22;58320;48.804;9.252;2023-06-19T13:19:43;37.30;32.20
70734;DHT22;58320;48.804;9.252;2023-06-19T13:22:09;36.80;32.80
70734;DHT22;58320;48.804;9.252;2023-06-19T13:24:34;37.50;32.20
70734;DHT22;58320;48.804;9.252;2023-06-19T13:27:00;37.00;32.20
70734;DHT22;58320;48.804;9.252;2023-06-19T13:29:26;36.40;32.90
70734;DHT22;58320;48.804;9.252;2023-06-19T13:31:52;35.20;34.40
70734;DHT22;58320;48.804;9.252;2023-06-19T13:34:18;34.60;35.10
70734;DHT22;58320;48.804;9.252;2023-06-19T13:36:44;34.60;35.20
70734;DHT22;58320;48.804;9.252;2023-06-19T13:39:10;35.60;34.00
70734;DHT22;58320;48.804;9.252;2023-06-19T13:41:36;36.60;33.40
70734;DHT22;58320;48.804;9.252;2023-06-19T13:44:02;37.60;32.20
70734;DHT22;58320;48.804;9.252;2023-06-19T13:46:28;38.30;31.40
70734;DHT22;58320;48.804;9.252;2023-06-19T13:48:54;38.60;30.80
70734;DHT22;58320;48.804;9.252;2023-06-19T13:51:21;38.30;30.70
70734;DHT22;58320;48.804;9.252;2023-06-19T13:53:47;37.90;30.90
70734;DHT22;58320;48.804;9.252;2023-06-19T13:56:14;37.70;31.60
70734;DHT22;58320;48.804;9.252;2023-06-19T13:58:40;37.90;31.30
70734;DHT22;58320;48.804;9.252;2023-06-19T14:01:06;37.90;31.30
70734;DHT22;58320;48.804;9.252;2023-06-19T14:03:32;37.80;31.50
70734;DHT22;58320;48.804;9.252;2023-06-19T14:05:58;38.30;31.00
70734;DHT22;58320;48.804;9.252;2023-06-19T14:08:23;39.00;30.10
70734;DHT22;58320;48.804;9.252;2023-06-19T14:10:50;39.90;29.40
70734;DHT22;58320;48.804;9.252;2023-06-19T14:13:16;39.80;28.70
70734;DHT22;58320;48.804;9.252;2023-06-19T14:15:42;39.60;29.20
70734;DHT22;58320;48.804;9.252;2023-06-19T14:18:08;39.40;29.40
70734;DHT22;58320;48.804;9.252;2023-06-19T14:20:33;39.10;29.70
70734;DHT22;58320;48.804;9.252;2023-06-19T14:22:59;38.90;30.20
70734;DHT22;58320;48.804;9.252;2023-06-19T14:25:25;38.50;30.20
70734;DHT22;58320;48.804;9.252;2023-06-19T14:27:51;38.50;30.10
70734;DHT22;58320;48.804;9.252;2023-06-19T14:30:18;38.20;30.40
70734;DHT22;58320;48.804;9.252;2023-06-19T14:32:44;38.40;30.40
70734;DHT22;58320;48.804;9.252;2023-06-19T14:35:10;38.80;30.30
70734;DHT22;58320;48.804;9.252;2023-06-19T14:37:36;39.40;29.50
70734;DHT22;58320;48.804;9.252;2023-06-19T14:40:02;39.50;29.70
70734;DHT22;58320;48.804;9.252;2023-06-19T14:42:28;39.10;30.30
70734;DHT22;58320;48.804;9.252;2023-06-19T14:44:54;38.00;31.20
70734;DHT22;58320;48.804;9.252;2023-06-19T14:47:20;37.10;32.20
70734;DHT22;58320;48.804;9.252;2023-06-19T14:49:46;36.20;33.40
70734;DHT22;58320;48.804;9.252;2023-06-19T14:52:13;35.50;34.00
70734;DHT22;58320;48.804;9.252;2023-06-19T14:54:40;35.50;33.90
70734;DHT22;58320;48.804;9.252;2023-06-19T14:57:06;36.00;33.70
70734;DHT22;58320;48.804;9.252;2023-06-19T14:59:32;36.90;32.60
70734;DHT22;58320;48.804;9.252;2023-06-19T15:01:58;37.40;31.80
70734;DHT22;58320;48.804;9.252;2023-06-19T15:04:23;37.50;32.10
70734;DHT22;58320;48.804;9.252;2023-06-19T15:06:49;37.60;31.50
70734;DHT22;58320;48.804;9.252;2023-06-19T15:09:15;37.30;31.90
70734;DHT22;58320;48.804;9.252;2023-06-19T15:11:41;36.80;32.50
70734;DHT22;58320;48.804;9.252;2023-06-19T15:14:07;36.50;32.80
70734;DHT22;58320;48.804;9.252;2023-06-19T15:16:32;36.90;32.40
70734;DHT22;58320;48.804;9.252;2023-06-19T15:18:59;37.30;32.50
70734;DHT22;58320;48.804;9.252;2023-06-19T15:21:24;37.90;31.50
70734;DHT22;58320;48.804;9.252;2023-06-19T15:23:53;38.70;30.30
70734;DHT22;58320;48.804;9.252;2023-06-19T15:26:20;39.10;30.10
70734;DHT22;58320;48.804;9.252;2023-06-19T15:28:46;40.00;29.80
70734;DHT22;58320;48.804;9.252;2023-06-19T15:31:13;40.90;27.90
70734;DHT22;58320;48.804;9.252;2023-06-19T15:33:38;41.40;27.70
70734;DHT22;58320;48.804;9.252;2023-06-19T15:36:05;41.40;27.50
70734;DHT22;58320;48.804;9.252;2023-06-19T15:38:30;40.80;28.10